sensor_id;sensor_type;location;lat;lon;timestamp;temperature;humidity
23731;DHT22;12046;44.702;10.622;2023-10-31T00:02:16;19.00;99.90
23731;DHT22;12046;44.702;10.622;2023-10-31T00:04:42;19.00;99.90
23731;DHT22;12046;44.702;10.622;2023-10-31T00:07:08;19.00;99.90
23731;DHT22;12046;44.702;10.622;2023-10-31T00:09:34;19.10;99.90
23731;DHT22;12046;44.702;10.622;2023-10-31T00:12:00;19.10;99.90
23731;DHT22;12046;44.702;10.622;2023-10-31T00:14:25;19.10;99.90
23731;DHT22;12046;44.702;10.622;2023-10-31T00:16:51;19.00;99.90
23731;DHT22;12046;44.702;10.622;2023-10-31T00:19:17;19.00;99.90
23731;DHT22;12046;44.702;10.622;2023-10-31T00:21:43;19.00;99.90
23731;DHT22;12046;44.702;10.622;2023-10-31T00:24:09;19.00;99.90
23731;DHT22;12046;44.702;10.622;2023-10-31T00:26:34;19.10;99.90
23731;DHT22;12046;44.702;10.622;2023-10-31T00:29:00;19.10;99.90
23731;DHT22;12046;44.702;10.622;2023-10-31T00:31:26;19.20;99.90
23731;DHT22;12046;44.702;10.622;2023-10-31T00:33:52;19.30;99.90
23731;DHT22;12046;44.702;10.622;2023-10-31T00:36:17;19.50;99.90
23731;DHT22;12046;44.702;10.622;2023-10-31T00:38:43;19.60;99.90
23731;DHT22;12046;44.702;10.622;2023-10-31T00:41:09;19.70;99.90
23731;DHT22;12046;44.702;10.622;2023-10-31T00:43:35;19.80;99.90
23731;DHT22;12046;44.702;10.622;2023-10-31T00:46:03;19.90;99.90
23731;DHT22;12046;44.702;10.622;2023-10-31T00:48:29;20.00;99.90
23731;DHT22;12046;44.702;10.622;2023-10-31T00:50:54;20.10;99.90
23731;DHT22;12046;44.702;10.622;2023-10-31T00:53:20;20.00;99.90
23731;DHT22;12046;44.702;10.622;2023-10-31T00:55:46;20.00;99.90
23731;DHT22;12046;44.702;10.622;2023-10-31T00:58:12;20.00;99.90
23731;DHT22;12046;44.702;10.622;2023-10-31T01:00:38;19.90;99.90
23731;DHT22;12046;44.702;10.622;2023-10-31T01:03:06;19.90;99.90
23731;DHT22;12046;44.702;10.622;2023-10-31T01:05:32;19.90;99.90
23731;DHT22;12046;44.702;10.622;2023-10-31T01:07:58;19.80;99.90
23731;DHT22;12046;44.702;10.622;2023-10-31T01:10:23;19.80;99.90
23731;DHT22;12046;44.702;10.622;2023-10-31T01:12:49;19.80;99.90
23731;DHT22;12046;44.702;10.622;2023-10-31T01:15:15;19.70;99.90
23731;DHT22;12046;44.702;10.622;2023-10-31T01:17:41;19.70;99.90
23731;DHT22;12046;44.702;10.622;2023-10-31T01:20:07;19.70;99.90
23731;DHT22;12046;44.702;10.622;2023-10-31T01:22:33;19.60;99.90
23731;DHT22;12046;44.702;10.622;2023-10-31T01:24:58;19.50;99.90
23731;DHT22;12046;44.702;10.622;2023-10-31T01:27:24;19.50;99.90
23731;DHT22;12046;44.702;10.622;2023-10-31T01:29:50;19.40;99.90
23731;DHT22;12046;44.702;10.622;2023-10-31T01:32:16;19.40;99.90
23731;DHT22;12046;44.702;10.622;2023-10-31T01:34:41;19.40;99.90
23731;DHT22;12046;44.702;10.622;2023-10-31T01:37:07;19.30;99.90
23731;DHT22;12046;44.702;10.622;2023-10-31T01:39:36;19.20;99.90
23731;DHT22;12046;44.702;10.622;2023-10-31T01:42:05;19.20;99.90
23731;DHT22;12046;44.702;10.622;2023-10-31T01:44:31;19.20;99.90
23731;DHT22;12046;44.702;10.622;2023-10-31T01:46:56;19.10;99.90
23731;DHT22;12046;44.702;10.622;2023-10-31T01:49:22;19.10;99.90
23731;DHT22;12046;44.702;10.622;2023-10-31T01:51:50;19.10;99.90
23731;DHT22;12046;44.702;10.622;2023-10-31T01:54:16;19.00;99.90
23731;DHT22;12046;44.702;10.622;2023-10-31T01:56:43;19.00;99.90
23731;DHT22;12046;44.702;10.622;2023-10-31T01:59:09;19.00;99.90
23731;DHT22;12046;44.702;10.622;2023-10-31T02:01:39;19.00;99.90
23731;DHT22;12046;44.702;10.622;2023-10-31T02:04:08;18.90;99.90
23731;DHT22;12046;44.702;10.622;2023-10-31T02:06:33;18.90;99.90
23731;DHT22;12046;44.702;10.622;2023-10-31T02:08:59;18.90;99.90
23731;DHT22;12046;44.702;10.622;2023-10-31T02:11:25;18.90;99.90
23731;DHT22;12046;44.702;10.622;2023-10-31T02:13:51;18.80;99.90
23731;DHT22;12046;44.702;10.622;2023-10-31T02:16:16;18.80;99.90
23731;DHT22;12046;44.702;10.622;2023-10-31T02:18:42;18.80;99.90
23731;DHT22;12046;44.702;10.622;2023-10-31T02:21:08;18.70;99.90
23731;DHT22;12046;44.702;10.622;2023-10-31T02:23:34;18.70;99.90
23731;DHT22;12046;44.702;10.622;2023-10-31T02:26:00;18.60;99.90
23731;DHT22;12046;44.702;10.622;2023-10-31T02:28:25;18.60;99.90
23731;DHT22;12046;44.702;10.622;2023-10-31T02:30:54;18.50;99.90
23731;DHT22;12046;44.702;10.622;2023-10-31T02:33:21;18.50;99.90
23731;DHT22;12046;44.702;10.622;2023-10-31T02:35:46;18.40;99.90
23731;DHT22;12046;44.702;10.622;2023-10-31T02:38:13;18.40;99.90
23731;DHT22;12046;44.702;10.622;2023-10-31T02:40:38;18.40;99.90
23731;DHT22;12046;44.702;10.622;2023-10-31T02:43:04;18.50;99.90
23731;DHT22;12046;44.702;10.622;2023-10-31T02:45:30;18.40;99.90
23731;DHT22;12046;44.702;10.622;2023-10-31T02:47:56;18.40;99.90
23731;DHT22;12046;44.702;10.622;2023-10-31T02:50:21;18.40;99.90
23731;DHT22;12046;44.702;10.622;2023-10-31T02:52:47;18.40;99.90
23731;DHT22;12046;44.702;10.622;2023-10-31T02:55:13;18.40;99.90
23731;DHT22;12046;44.702;10.622;2023-10-31T02:57:39;18.40;99.90
23731;DHT22;12046;44.702;10.622;2023-10-31T03:00:05;18.30;99.90
23731;DHT22;12046;44.702;10.622;2023-10-31T03:02:31;18.30;99.90
23731;DHT22;12046;44.702;10.622;2023-10-31T03:04:57;18.30;99.90
23731;DHT22;12046;44.702;10.622;2023-10-31T03:07:23;18.20;99.90
23731;DHT22;12046;44.702;10.622;2023-10-31T03:09:49;18.20;99.90
23731;DHT22;12046;44.702;10.622;2023-10-31T03:12:15;18.20;99.90
23731;DHT22;12046;44.702;10.622;2023-10-31T03:14:41;18.20;99.90
23731;DHT22;12046;44.702;10.622;2023-10-31T03:17:07;18.20;99.90
23731;DHT22;12046;44.702;10.622;2023-10-31T03:19:33;18.10;99.90
23731;DHT22;12046;44.702;10.622;2023-10-31T03:21:58;18.10;99.90
23731;DHT22;12046;44.702;10.622;2023-10-31T03:24:24;18.10;99.90
23731;DHT22;12046;44.702;10.622;2023-10-31T03:26:50;18.10;99.90
23731;DHT22;12046;44.702;10.622;2023-10-31T03:29:16;18.10;99.90
23731;DHT22;12046;44.702;10.622;2023-10-31T03:31:41;18.10;99.90
23731;DHT22;12046;44.702;10.622;2023-10-31T03:34:07;18.10;99.90
23731;DHT22;12046;44.702;10.622;2023-10-31T03:36:33;18.10;99.90
23731;DHT22;12046;44.702;10.622;2023-10-31T03:38:59;18.00;99.90
23731;DHT22;12046;44.702;10.622;2023-10-31T03:41:25;18.00;99.90
23731;DHT22;12046;44.702;10.622;2023-10-31T03:43:51;18.00;99.90
23731;DHT22;12046;44.702;10.622;2023-10-31T03:46:16;18.00;99.90
23731;DHT22;12046;44.702;10.622;2023-10-31T03:48:45;18.00;99.90
23731;DHT22;12046;44.702;10.622;2023-10-31T03:51:10;18.00;99.90
23731;DHT22;12046;44.702;10.622;2023-10-31T03:53:36;18.00;99.90
23731;DHT22;12046;44.702;10.622;2023-10-31T03:56:02;18.00;99.90
23731;DHT22;12046;44.702;10.622;2023-10-31T03:58:29;18.00;99.90
23731;DHT22;12046;44.702;10.622;2023-10-31T04:00:54;18.00;99.90
23731;DHT22;12046;44.702;10.622;2023-10-31T04:03:20;18.10;99.90
23731;DHT22;12046;44.702;10.622;2023-10-31T04:05:46;18.10;99.90
23731;DHT22;12046;44.702;10.622;2023-10-31T04:08:12;18.10;99.90
23731;DHT22;12046;44.702;10.622;2023-10-31T04:10:37;18.10;99.90
23731;DHT22;12046;44.702;10.622;2023-10-31T04:13:03;18.20;99.90
23731;DHT22;12046;44.702;10.622;2023-10-31T04:15:29;18.30;99.90
23731;DHT22;12046;44.702;10.622;2023-10-31T04:17:55;18.30;99.90
23731;DHT22;12046;44.702;10.622;2023-10-31T04:20:20;18.30;99.90
23731;DHT22;12046;44.702;10.622;2023-10-31T04:22:46;18.40;99.90
23731;DHT22;12046;44.702;10.622;2023-10-31T04:25:12;18.40;99.90
23731;DHT22;12046;44.702;10.622;2023-10-31T04:27:38;18.40;99.90
23731;DHT22;12046;44.702;10.622;2023-10-31T04:30:04;18.50;99.90
23731;DHT22;12046;44.702;10.622;2023-10-31T04:32:30;18.50;99.90
23731;DHT22;12046;44.702;10.622;2023-10-31T04:34:55;18.60;99.90
23731;DHT22;12046;44.702;10.622;2023-10-31T04:37:21;18.60;99.90
23731;DHT22;12046;44.702;10.622;2023-10-31T04:39:50;18.60;99.90
23731;DHT22;12046;44.702;10.622;2023-10-31T04:42:19;18.50;99.90
23731;DHT22;12046;44.702;10.622;2023-10-31T04:44:46;18.60;99.90
23731;DHT22;12046;44.702;10.622;2023-10-31T04:47:17;18.60;99.90
23731;DHT22;12046;44.702;10.622;2023-10-31T04:49:46;18.60;99.90
23731;DHT22;12046;44.702;10.622;2023-10-31T04:52:12;18.60;99.90
23731;DHT22;12046;44.702;10.622;2023-10-31T04:54:40;18.60;99.90
23731;DHT22;12046;44.702;10.622;2023-10-31T04:57:06;18.50;99.80
23731;DHT22;12046;44.702;10.622;2023-10-31T04:59:32;18.50;99.30
23731;DHT22;12046;44.702;10.622;2023-10-31T05:01:58;18.50;99.10
23731;DHT22;12046;44.702;10.622;2023-10-31T05:04:24;18.40;98.90
23731;DHT22;12046;44.702;10.622;2023-10-31T05:06:50;18.50;98.60
23731;DHT22;12046;44.702;10.622;2023-10-31T05:09:16;18.40;98.30
23731;DHT22;12046;44.702;10.622;2023-10-31T05:11:41;18.40;98.20
23731;DHT22;12046;44.702;10.622;2023-10-31T05:14:08;18.40;98.20
23731;DHT22;12046;44.702;10.622;2023-10-31T05:16:42;18.40;98.20
23731;DHT22;12046;44.702;10.622;2023-10-31T05:19:08;18.40;97.80
23731;DHT22;12046;44.702;10.622;2023-10-31T05:21:34;18.30;97.60
23731;DHT22;12046;44.702;10.622;2023-10-31T05:24:00;18.40;97.60
23731;DHT22;12046;44.702;10.622;2023-10-31T05:26:26;18.30;97.40
23731;DHT22;12046;44.702;10.622;2023-10-31T05:28:53;18.40;96.90
23731;DHT22;12046;44.702;10.622;2023-10-31T05:31:19;18.40;96.50
23731;DHT22;12046;44.702;10.622;2023-10-31T05:33:45;18.40;96.20
23731;DHT22;12046;44.702;10.622;2023-10-31T05:36:24;18.40;96.20
23731;DHT22;12046;44.702;10.622;2023-10-31T05:38:50;18.40;96.20
23731;DHT22;12046;44.702;10.622;2023-10-31T05:41:16;18.40;96.20
23731;DHT22;12046;44.702;10.622;2023-10-31T05:43:42;18.40;96.20
23731;DHT22;12046;44.702;10.622;2023-10-31T05:46:08;18.40;96.30
23731;DHT22;12046;44.702;10.622;2023-10-31T05:48:46;18.40;96.40
23731;DHT22;12046;44.702;10.622;2023-10-31T05:51:16;18.30;96.50
23731;DHT22;12046;44.702;10.622;2023-10-31T05:53:47;18.30;96.50
23731;DHT22;12046;44.702;10.622;2023-10-31T05:56:14;18.20;96.50
23731;DHT22;12046;44.702;10.622;2023-10-31T05:58:40;18.20;96.50
23731;DHT22;12046;44.702;10.622;2023-10-31T06:01:07;18.20;96.50
23731;DHT22;12046;44.702;10.622;2023-10-31T06:03:36;18.10;96.30
23731;DHT22;12046;44.702;10.622;2023-10-31T06:06:03;18.10;96.20
23731;DHT22;12046;44.702;10.622;2023-10-31T06:08:29;18.10;96.10
23731;DHT22;12046;44.702;10.622;2023-10-31T06:10:56;18.10;96.10
23731;DHT22;12046;44.702;10.622;2023-10-31T06:13:22;18.20;96.10
23731;DHT22;12046;44.702;10.622;2023-10-31T06:15:50;18.20;95.80
23731;DHT22;12046;44.702;10.622;2023-10-31T06:18:16;18.20;95.60
23731;DHT22;12046;44.702;10.622;2023-10-31T06:20:44;18.30;95.50
23731;DHT22;12046;44.702;10.622;2023-10-31T06:23:10;18.30;95.40
23731;DHT22;12046;44.702;10.622;2023-10-31T06:25:36;18.30;95.20
23731;DHT22;12046;44.702;10.622;2023-10-31T06:28:02;18.40;95.10
23731;DHT22;12046;44.702;10.622;2023-10-31T06:30:28;18.50;95.00
23731;DHT22;12046;44.702;10.622;2023-10-31T06:32:56;18.50;94.90
23731;DHT22;12046;44.702;10.622;2023-10-31T06:35:41;18.50;94.80
23731;DHT22;12046;44.702;10.622;2023-10-31T06:38:07;18.50;94.80
23731;DHT22;12046;44.702;10.622;2023-10-31T06:40:33;18.50;94.90
23731;DHT22;12046;44.702;10.622;2023-10-31T06:42:58;18.60;95.00
23731;DHT22;12046;44.702;10.622;2023-10-31T06:45:36;18.60;95.00
23731;DHT22;12046;44.702;10.622;2023-10-31T06:48:02;18.60;95.10
23731;DHT22;12046;44.702;10.622;2023-10-31T06:50:34;18.70;95.20
23731;DHT22;12046;44.702;10.622;2023-10-31T06:53:02;18.80;95.30
23731;DHT22;12046;44.702;10.622;2023-10-31T06:55:28;18.80;95.30
23731;DHT22;12046;44.702;10.622;2023-10-31T06:57:54;18.90;95.40
23731;DHT22;12046;44.702;10.622;2023-10-31T07:00:20;18.90;95.60
23731;DHT22;12046;44.702;10.622;2023-10-31T07:02:46;18.80;95.90
23731;DHT22;12046;44.702;10.622;2023-10-31T07:05:13;18.60;96.20
23731;DHT22;12046;44.702;10.622;2023-10-31T07:07:39;18.30;96.50
23731;DHT22;12046;44.702;10.622;2023-10-31T07:10:06;17.90;96.90
23731;DHT22;12046;44.702;10.622;2023-10-31T07:12:35;17.60;97.60
23731;DHT22;12046;44.702;10.622;2023-10-31T07:15:01;17.30;98.40
23731;DHT22;12046;44.702;10.622;2023-10-31T07:17:26;17.00;99.20
23731;DHT22;12046;44.702;10.622;2023-10-31T07:19:52;16.70;99.80
23731;DHT22;12046;44.702;10.622;2023-10-31T07:22:18;16.40;99.90
23731;DHT22;12046;44.702;10.622;2023-10-31T07:24:44;16.20;99.90
23731;DHT22;12046;44.702;10.622;2023-10-31T07:27:10;16.00;99.90
23731;DHT22;12046;44.702;10.622;2023-10-31T07:29:39;15.80;99.90
23731;DHT22;12046;44.702;10.622;2023-10-31T07:32:06;15.60;99.90
23731;DHT22;12046;44.702;10.622;2023-10-31T07:34:32;15.40;99.90
23731;DHT22;12046;44.702;10.622;2023-10-31T07:36:57;15.20;99.90
23731;DHT22;12046;44.702;10.622;2023-10-31T07:39:23;15.00;99.90
23731;DHT22;12046;44.702;10.622;2023-10-31T07:41:52;14.80;99.90
23731;DHT22;12046;44.702;10.622;2023-10-31T07:44:21;14.70;99.90
23731;DHT22;12046;44.702;10.622;2023-10-31T07:46:46;14.50;99.90
23731;DHT22;12046;44.702;10.622;2023-10-31T07:49:21;14.40;99.90
23731;DHT22;12046;44.702;10.622;2023-10-31T07:51:47;14.30;99.90
23731;DHT22;12046;44.702;10.622;2023-10-31T07:54:14;14.20;99.90
23731;DHT22;12046;44.702;10.622;2023-10-31T07:56:40;14.20;99.90
23731;DHT22;12046;44.702;10.622;2023-10-31T07:59:06;14.10;99.90
23731;DHT22;12046;44.702;10.622;2023-10-31T08:01:42;14.10;99.90
23731;DHT22;12046;44.702;10.622;2023-10-31T08:04:07;14.10;99.90
23731;DHT22;12046;44.702;10.622;2023-10-31T08:06:36;14.20;99.90
23731;DHT22;12046;44.702;10.622;2023-10-31T08:09:02;14.30;99.90
23731;DHT22;12046;44.702;10.622;2023-10-31T08:11:37;14.30;99.90
23731;DHT22;12046;44.702;10.622;2023-10-31T08:14:03;14.50;99.90
23731;DHT22;12046;44.702;10.622;2023-10-31T08:16:29;14.50;99.90
23731;DHT22;12046;44.702;10.622;2023-10-31T08:18:57;14.70;99.90
23731;DHT22;12046;44.702;10.622;2023-10-31T08:21:23;14.80;99.90
23731;DHT22;12046;44.702;10.622;2023-10-31T08:23:49;15.00;99.90
23731;DHT22;12046;44.702;10.622;2023-10-31T08:26:15;15.30;99.90
23731;DHT22;12046;44.702;10.622;2023-10-31T08:28:41;15.60;99.90
23731;DHT22;12046;44.702;10.622;2023-10-31T08:31:07;16.00;99.90
23731;DHT22;12046;44.702;10.622;2023-10-31T08:33:33;16.30;99.90
23731;DHT22;12046;44.702;10.622;2023-10-31T08:35:59;16.50;99.90
23731;DHT22;12046;44.702;10.622;2023-10-31T08:38:24;16.90;99.90
23731;DHT22;12046;44.702;10.622;2023-10-31T08:40:58;17.60;99.90
23731;DHT22;12046;44.702;10.622;2023-10-31T08:43:27;18.60;99.90
23731;DHT22;12046;44.702;10.622;2023-10-31T08:45:53;19.20;98.20
23731;DHT22;12046;44.702;10.622;2023-10-31T08:48:19;19.70;96.80
23731;DHT22;12046;44.702;10.622;2023-10-31T08:50:45;20.10;95.50
23731;DHT22;12046;44.702;10.622;2023-10-31T08:53:11;20.20;94.10
23731;DHT22;12046;44.702;10.622;2023-10-31T08:55:37;20.10;93.90
23731;DHT22;12046;44.702;10.622;2023-10-31T08:58:03;19.90;94.00
23731;DHT22;12046;44.702;10.622;2023-10-31T09:00:35;19.60;93.80
23731;DHT22;12046;44.702;10.622;2023-10-31T09:03:01;19.30;93.70
23731;DHT22;12046;44.702;10.622;2023-10-31T09:05:27;18.90;94.00
23731;DHT22;12046;44.702;10.622;2023-10-31T09:07:53;18.60;94.30
23731;DHT22;12046;44.702;10.622;2023-10-31T09:10:19;18.40;94.50
23731;DHT22;12046;44.702;10.622;2023-10-31T09:12:44;18.20;94.80
23731;DHT22;12046;44.702;10.622;2023-10-31T09:15:11;18.20;95.00
23731;DHT22;12046;44.702;10.622;2023-10-31T09:17:38;18.30;94.90
23731;DHT22;12046;44.702;10.622;2023-10-31T09:20:04;18.40;94.60
23731;DHT22;12046;44.702;10.622;2023-10-31T09:22:30;18.50;94.30
23731;DHT22;12046;44.702;10.622;2023-10-31T09:24:56;18.70;93.90
23731;DHT22;12046;44.702;10.622;2023-10-31T09:27:23;18.80;93.80
23731;DHT22;12046;44.702;10.622;2023-10-31T09:29:48;18.90;93.30
23731;DHT22;12046;44.702;10.622;2023-10-31T09:32:15;19.10;93.00
23731;DHT22;12046;44.702;10.622;2023-10-31T09:34:41;19.30;92.80
23731;DHT22;12046;44.702;10.622;2023-10-31T09:37:07;19.60;92.20
23731;DHT22;12046;44.702;10.622;2023-10-31T09:39:38;19.90;92.10
23731;DHT22;12046;44.702;10.622;2023-10-31T09:42:07;20.50;92.00
23731;DHT22;12046;44.702;10.622;2023-10-31T09:44:34;22.20;90.60
23731;DHT22;12046;44.702;10.622;2023-10-31T09:47:01;24.60;85.70
23731;DHT22;12046;44.702;10.622;2023-10-31T09:49:29;26.50;78.40
23731;DHT22;12046;44.702;10.622;2023-10-31T09:52:01;29.00;71.00
23731;DHT22;12046;44.702;10.622;2023-10-31T09:54:28;31.10;64.30
23731;DHT22;12046;44.702;10.622;2023-10-31T09:56:54;32.80;60.20
23731;DHT22;12046;44.702;10.622;2023-10-31T09:59:19;35.00;55.60
23731;DHT22;12046;44.702;10.622;2023-10-31T10:01:45;37.40;50.60
23731;DHT22;12046;44.702;10.622;2023-10-31T10:04:11;39.70;47.40
23731;DHT22;12046;44.702;10.622;2023-10-31T10:07:01;41.40;43.70
23731;DHT22;12046;44.702;10.622;2023-10-31T10:09:27;42.50;41.60
23731;DHT22;12046;44.702;10.622;2023-10-31T10:11:54;43.50;40.20
23731;DHT22;12046;44.702;10.622;2023-10-31T10:14:23;44.20;39.40
23731;DHT22;12046;44.702;10.622;2023-10-31T10:16:49;45.00;38.00
23731;DHT22;12046;44.702;10.622;2023-10-31T10:19:17;45.70;37.10
23731;DHT22;12046;44.702;10.622;2023-10-31T10:22:02;46.30;36.50
23731;DHT22;12046;44.702;10.622;2023-10-31T10:24:28;47.00;36.20
23731;DHT22;12046;44.702;10.622;2023-10-31T10:26:54;47.80;35.80
23731;DHT22;12046;44.702;10.622;2023-10-31T10:29:20;48.50;34.70
23731;DHT22;12046;44.702;10.622;2023-10-31T10:31:45;49.00;34.00
23731;DHT22;12046;44.702;10.622;2023-10-31T10:34:14;49.30;33.70
23731;DHT22;12046;44.702;10.622;2023-10-31T10:36:49;49.50;33.60
23731;DHT22;12046;44.702;10.622;2023-10-31T10:39:20;49.50;32.80
23731;DHT22;12046;44.702;10.622;2023-10-31T10:41:55;49.70;32.70
23731;DHT22;12046;44.702;10.622;2023-10-31T10:44:34;49.80;32.80
23731;DHT22;12046;44.702;10.622;2023-10-31T10:47:05;50.10;32.80
23731;DHT22;12046;44.702;10.622;2023-10-31T10:49:36;50.30;32.30
23731;DHT22;12046;44.702;10.622;2023-10-31T10:52:23;50.60;32.10
23731;DHT22;12046;44.702;10.622;2023-10-31T10:54:59;50.80;31.90
23731;DHT22;12046;44.702;10.622;2023-10-31T10:59:55;51.20;31.90
23731;DHT22;12046;44.702;10.622;2023-10-31T11:02:23;51.40;31.60
23731;DHT22;12046;44.702;10.622;2023-10-31T11:04:49;51.50;31.60
23731;DHT22;12046;44.702;10.622;2023-10-31T11:07:17;51.60;31.70
23731;DHT22;12046;44.702;10.622;2023-10-31T11:09:44;51.80;31.40
23731;DHT22;12046;44.702;10.622;2023-10-31T11:12:12;51.80;31.20
23731;DHT22;12046;44.702;10.622;2023-10-31T11:14:40;51.60;30.60
23731;DHT22;12046;44.702;10.622;2023-10-31T11:17:14;50.80;30.30
23731;DHT22;12046;44.702;10.622;2023-10-31T11:19:42;50.30;30.70
23731;DHT22;12046;44.702;10.622;2023-10-31T11:22:08;50.10;30.70
23731;DHT22;12046;44.702;10.622;2023-10-31T11:24:38;49.90;31.00
23731;DHT22;12046;44.702;10.622;2023-10-31T11:27:06;50.00;31.10
23731;DHT22;12046;44.702;10.622;2023-10-31T11:29:32;50.30;31.10
23731;DHT22;12046;44.702;10.622;2023-10-31T11:31:59;50.60;30.80
23731;DHT22;12046;44.702;10.622;2023-10-31T11:34:29;50.70;30.70
23731;DHT22;12046;44.702;10.622;2023-10-31T11:37:18;50.80;30.70
23731;DHT22;12046;44.702;10.622;2023-10-31T11:42:44;50.60;30.70
23731;DHT22;12046;44.702;10.622;2023-10-31T11:45:13;50.60;30.50
23731;DHT22;12046;44.702;10.622;2023-10-31T11:47:48;50.60;30.50
23731;DHT22;12046;44.702;10.622;2023-10-31T11:50:15;50.40;30.20
23731;DHT22;12046;44.702;10.622;2023-10-31T11:52:41;50.20;30.00
23731;DHT22;12046;44.702;10.622;2023-10-31T11:55:11;49.80;29.90
23731;DHT22;12046;44.702;10.622;2023-10-31T11:57:38;49.40;30.00
23731;DHT22;12046;44.702;10.622;2023-10-31T12:00:05;49.00;30.00
23731;DHT22;12046;44.702;10.622;2023-10-31T12:02:31;48.40;30.20
23731;DHT22;12046;44.702;10.622;2023-10-31T12:05:09;47.30;30.40
23731;DHT22;12046;44.702;10.622;2023-10-31T12:07:45;46.00;30.90
23731;DHT22;12046;44.702;10.622;2023-10-31T12:10:12;45.00;31.40
23731;DHT22;12046;44.702;10.622;2023-10-31T12:12:38;44.30;32.00
23731;DHT22;12046;44.702;10.622;2023-10-31T12:15:08;43.90;32.30
23731;DHT22;12046;44.702;10.622;2023-10-31T12:17:35;43.90;32.50
23731;DHT22;12046;44.702;10.622;2023-10-31T12:20:08;43.70;33.00
23731;DHT22;12046;44.702;10.622;2023-10-31T12:22:35;43.60;32.70
23731;DHT22;12046;44.702;10.622;2023-10-31T12:25:02;43.20;32.70
23731;DHT22;12046;44.702;10.622;2023-10-31T12:27:49;42.70;32.90
23731;DHT22;12046;44.702;10.622;2023-10-31T12:30:17;41.40;33.30
23731;DHT22;12046;44.702;10.622;2023-10-31T12:32:44;40.10;34.10
23731;DHT22;12046;44.702;10.622;2023-10-31T12:35:12;38.90;35.00
23731;DHT22;12046;44.702;10.622;2023-10-31T12:37:46;37.80;35.90
23731;DHT22;12046;44.702;10.622;2023-10-31T12:40:20;36.80;36.60
23731;DHT22;12046;44.702;10.622;2023-10-31T12:42:49;36.40;36.90
23731;DHT22;12046;44.702;10.622;2023-10-31T12:45:18;36.00;36.70
23731;DHT22;12046;44.702;10.622;2023-10-31T12:51:08;35.00;37.00
23731;DHT22;12046;44.702;10.622;2023-10-31T12:53:34;34.30;37.60
23731;DHT22;12046;44.702;10.622;2023-10-31T12:56:00;33.60;37.70
23731;DHT22;12046;44.702;10.622;2023-10-31T12:58:26;33.00;38.10
23731;DHT22;12046;44.702;10.622;2023-10-31T13:00:51;32.30;38.30
23731;DHT22;12046;44.702;10.622;2023-10-31T13:03:19;31.70;38.50
23731;DHT22;12046;44.702;10.622;2023-10-31T13:05:46;31.10;38.60
23731;DHT22;12046;44.702;10.622;2023-10-31T13:08:15;30.60;39.00
23731;DHT22;12046;44.702;10.622;2023-10-31T13:10:41;30.00;39.50
23731;DHT22;12046;44.702;10.622;2023-10-31T13:13:08;29.50;40.00
23731;DHT22;12046;44.702;10.622;2023-10-31T13:15:34;29.30;40.40
23731;DHT22;12046;44.702;10.622;2023-10-31T13:18:05;29.10;40.90
23731;DHT22;12046;44.702;10.622;2023-10-31T13:20:31;29.00;41.60
23731;DHT22;12046;44.702;10.622;2023-10-31T13:22:57;28.70;42.10
23731;DHT22;12046;44.702;10.622;2023-10-31T13:25:23;28.40;43.10
23731;DHT22;12046;44.702;10.622;2023-10-31T13:27:49;28.10;44.30
23731;DHT22;12046;44.702;10.622;2023-10-31T13:30:18;27.70;45.00
23731;DHT22;12046;44.702;10.622;2023-10-31T13:32:45;27.40;45.50
23731;DHT22;12046;44.702;10.622;2023-10-31T13:35:24;27.10;45.80
23731;DHT22;12046;44.702;10.622;2023-10-31T13:37:50;26.70;46.20
23731;DHT22;12046;44.702;10.622;2023-10-31T13:40:16;26.40;46.70
23731;DHT22;12046;44.702;10.622;2023-10-31T13:42:42;26.20;47.60
23731;DHT22;12046;44.702;10.622;2023-10-31T13:45:08;26.00;47.60
23731;DHT22;12046;44.702;10.622;2023-10-31T13:47:34;25.80;48.00
23731;DHT22;12046;44.702;10.622;2023-10-31T13:50:00;25.70;48.60
23731;DHT22;12046;44.702;10.622;2023-10-31T13:52:29;25.60;49.00
23731;DHT22;12046;44.702;10.622;2023-10-31T13:54:55;25.50;49.40
23731;DHT22;12046;44.702;10.622;2023-10-31T13:57:23;25.50;49.80
23731;DHT22;12046;44.702;10.622;2023-10-31T13:59:50;25.60;50.10
23731;DHT22;12046;44.702;10.622;2023-10-31T14:02:16;25.80;50.00
23731;DHT22;12046;44.702;10.622;2023-10-31T14:04:49;26.30;49.70
23731;DHT22;12046;44.702;10.622;2023-10-31T14:07:21;27.40;48.80
23731;DHT22;12046;44.702;10.622;2023-10-31T14:09:48;28.60;47.30
23731;DHT22;12046;44.702;10.622;2023-10-31T14:12:17;29.90;46.00
23731;DHT22;12046;44.702;10.622;2023-10-31T14:14:43;31.00;44.50
23731;DHT22;12046;44.702;10.622;2023-10-31T14:17:16;32.00;44.20
23731;DHT22;12046;44.702;10.622;2023-10-31T14:19:42;32.70;42.60
23731;DHT22;12046;44.702;10.622;2023-10-31T14:22:08;33.30;42.10
23731;DHT22;12046;44.702;10.622;2023-10-31T14:24:35;33.70;41.70
23731;DHT22;12046;44.702;10.622;2023-10-31T14:27:01;34.00;41.50
23731;DHT22;12046;44.702;10.622;2023-10-31T14:29:27;34.00;41.50
23731;DHT22;12046;44.702;10.622;2023-10-31T14:31:53;34.00;41.70
23731;DHT22;12046;44.702;10.622;2023-10-31T14:34:20;34.30;41.50
23731;DHT22;12046;44.702;10.622;2023-10-31T14:36:46;34.40;41.30
23731;DHT22;12046;44.702;10.622;2023-10-31T14:39:12;34.50;41.00
23731;DHT22;12046;44.702;10.622;2023-10-31T14:41:39;34.40;41.00
23731;DHT22;12046;44.702;10.622;2023-10-31T14:44:08;34.40;41.00
23731;DHT22;12046;44.702;10.622;2023-10-31T14:46:34;34.20;40.90
23731;DHT22;12046;44.702;10.622;2023-10-31T14:49:00;34.10;41.10
23731;DHT22;12046;44.702;10.622;2023-10-31T14:51:26;34.00;41.40
23731;DHT22;12046;44.702;10.622;2023-10-31T14:53:52;34.10;41.20
23731;DHT22;12046;44.702;10.622;2023-10-31T14:56:18;34.00;41.00
23731;DHT22;12046;44.702;10.622;2023-10-31T14:58:43;33.90;41.30
23731;DHT22;12046;44.702;10.622;2023-10-31T15:01:09;33.90;41.30
23731;DHT22;12046;44.702;10.622;2023-10-31T15:03:35;33.80;41.50
23731;DHT22;12046;44.702;10.622;2023-10-31T15:06:01;33.80;41.60
23731;DHT22;12046;44.702;10.622;2023-10-31T15:08:27;33.70;41.30
23731;DHT22;12046;44.702;10.622;2023-10-31T15:10:58;33.40;41.20
23731;DHT22;12046;44.702;10.622;2023-10-31T15:13:24;33.10;41.90
23731;DHT22;12046;44.702;10.622;2023-10-31T15:15:50;32.80;41.70
23731;DHT22;12046;44.702;10.622;2023-10-31T15:18:16;32.50;41.70
23731;DHT22;12046;44.702;10.622;2023-10-31T15:20:43;32.20;41.70
23731;DHT22;12046;44.702;10.622;2023-10-31T15:23:09;31.90;42.10
23731;DHT22;12046;44.702;10.622;2023-10-31T15:25:35;31.50;42.20